Time;durP1;ratioP1;P1;durP2;ratioP2;P2;SDS_P1;SDS_P2;PMS_P1;PMS_P2;Temp;Humidity;BMP_temperature;BMP_pressure;BME280_temperature;BME280_humidity;BME280_pressure;Samples;Min_cycle;Max_cycle;Signal;HPM_P1;HPM_P2
2023/05/26 00:00:20;;;;;;;20.58;4.05;;;;;;;11.72;86.65;102881.84;4994321;28;20068;-67
2023/05/26 00:02:47;;;;;;;19.38;4.25;;;;;;;11.70;85.99;102895.09;4987797;28;20092;-67
2023/05/26 00:05:16;;;;;;;20.58;4.07;;;;;;;11.66;85.94;102896.25;4982657;28;20495;-67
2023/05/26 00:07:43;;;;;;;19.70;4.28;;;;;;;11.62;87.59;102895.63;4990287;28;20080;-67
2023/05/26 00:10:10;;;;;;;25.45;4.55;;;;;;;11.64;87.45;102899.00;4978185;28;20149;-68
2023/05/26 00:12:37;;;;;;;25.80;4.50;;;;;;;11.64;89.06;102890.25;4985808;28;20082;-67
2023/05/26 00:15:04;;;;;;;21.45;4.85;;;;;;;11.52;87.30;102891.91;4984717;28;20100;-68
2023/05/26 00:17:31;;;;;;;26.85;4.72;;;;;;;11.53;88.42;102898.88;4975497;28;20082;-67
2023/05/26 00:19:59;;;;;;;25.55;4.57;;;;;;;11.52;86.36;102899.78;4989710;28;20065;-67
2023/05/26 00:22:26;;;;;;;14.55;3.30;;;;;;;11.46;87.75;102898.41;4981646;28;20069;-67
2023/05/26 00:24:53;;;;;;;21.15;3.88;;;;;;;11.38;88.48;102899.88;4993041;28;20081;-67
2023/05/26 00:27:19;;;;;;;20.42;4.38;;;;;;;11.32;88.64;102895.03;4979290;28;20434;-68
2023/05/26 00:29:47;;;;;;;17.73;3.72;;;;;;;11.27;88.79;102895.31;4982031;28;20057;-67
2023/05/26 00:32:15;;;;;;;17.40;3.20;;;;;;;11.20;88.74;102900.13;4989370;28;20512;-67
2023/05/26 00:34:42;;;;;;;26.77;4.60;;;;;;;11.19;88.80;102893.22;4985791;28;20100;-69
2023/05/26 00:37:08;;;;;;;19.80;3.60;;;;;;;11.21;87.12;102904.47;4988211;28;20078;-67
2023/05/26 00:39:35;;;;;;;20.70;4.18;;;;;;;11.16;89.81;102905.69;4977443;28;20050;-67
2023/05/26 00:42:02;;;;;;;22.75;3.65;;;;;;;11.21;89.04;102911.47;4985314;28;20050;-67
2023/05/26 00:44:29;;;;;;;21.42;4.15;;;;;;;11.16;89.04;102909.16;4982521;28;20061;-68
2023/05/26 00:46:55;;;;;;;23.77;4.47;;;;;;;11.15;89.03;102912.72;4976301;28;20053;-67
2023/05/26 00:49:23;;;;;;;23.65;4.30;;;;;;;11.14;90.16;102907.56;4985018;28;20081;-67
2023/05/26 00:51:49;;;;;;;19.73;3.67;;;;;;;11.09;89.86;102902.59;4979827;28;20164;-67
2023/05/26 00:54:19;;;;;;;21.15;3.80;;;;;;;11.09;89.42;102910.47;4990046;28;20058;-68
2023/05/26 00:56:46;;;;;;;23.13;3.97;;;;;;;11.10;88.91;102903.47;4984843;28;20104;-68
2023/05/26 00:59:13;;;;;;;24.65;4.32;;;;;;;11.09;88.78;102907.84;4989572;28;20151;-68
2023/05/26 01:01:41;;;;;;;17.38;3.40;;;;;;;11.14;88.96;102911.03;4985000;28;20161;-67
2023/05/26 01:04:08;;;;;;;19.85;3.63;;;;;;;11.16;88.47;102918.84;4984051;28;20422;-67
2023/05/26 01:06:34;;;;;;;19.08;3.83;;;;;;;11.14;88.26;102916.28;4981853;28;20124;-67
2023/05/26 01:09:02;;;;;;;29.90;5.70;;;;;;;11.11;89.88;102913.84;5000815;28;20054;-67
2023/05/26 01:11:36;;;;;;;20.35;3.28;;;;;;;11.13;89.79;102913.75;4989753;28;20053;-67
2023/05/26 01:14:54;;;;;;;23.30;5.32;;;;;;;11.12;89.69;102922.59;4971625;28;20144;-68
2023/05/26 01:17:30;;;;;;;19.98;3.92;;;;;;;11.06;90.74;102906.28;4967004;28;20046;-69
2023/05/26 01:20:07;;;;;;;20.98;3.67;;;;;;;11.06;88.36;102914.16;4998496;28;20058;-68
2023/05/26 01:22:47;;;;;;;24.58;3.75;;;;;;;11.07;89.53;102915.00;4992438;28;20054;-68
2023/05/26 01:25:25;;;;;;;16.42;3.67;;;;;;;11.04;89.58;102904.69;4995199;28;20081;-68
2023/05/26 01:28:14;;;;;;;21.30;4.07;;;;;;;11.07;88.86;102913.22;4995677;28;20148;-68
2023/05/26 01:30:43;;;;;;;19.40;4.13;;;;;;;11.02;89.52;102910.03;4968090;28;20561;-66
2023/05/26 01:33:09;;;;;;;29.15;3.85;;;;;;;11.00;91.33;102911.94;4985711;28;20136;-67
2023/05/26 01:35:36;;;;;;;22.75;5.10;;;;;;;10.95;92.40;102914.00;4986966;28;20120;-67
2023/05/26 01:38:03;;;;;;;22.75;3.92;;;;;;;10.94;90.66;102916.72;5002229;28;20057;-67
2023/05/26 01:40:30;;;;;;;23.25;4.30;;;;;;;10.89;92.84;102923.09;4997126;28;20046;-67
2023/05/26 01:43:08;;;;;;;18.92;3.33;;;;;;;10.86;92.83;102915.44;4987292;28;20441;-67
2023/05/26 01:45:48;;;;;;;19.30;3.65;;;;;;;10.79;93.32;102922.00;4998884;28;20478;-67
2023/05/26 01:48:17;;;;;;;22.05;3.88;;;;;;;10.81;93.34;102917.50;4995421;28;20064;-67
2023/05/26 01:50:50;;;;;;;20.08;3.72;;;;;;;10.77;94.07;102923.03;4998187;28;20058;-67
2023/05/26 01:53:20;;;;;;;30.17;4.45;;;;;;;10.78;93.28;102922.09;4998674;28;20141;-67
2023/05/26 01:55:51;;;;;;;24.60;3.83;;;;;;;10.78;92.71;102922.94;4996751;28;20042;-67
2023/05/26 01:58:19;;;;;;;22.65;4.32;;;;;;;10.73;95.03;102927.63;4989083;28;20062;-67
2023/05/26 02:00:47;;;;;;;22.42;3.72;;;;;;;10.75;93.69;102931.00;4985739;28;20101;-67
2023/05/26 02:03:13;;;;;;;16.88;3.75;;;;;;;10.73;92.65;102934.69;4997437;28;20090;-67
2023/05/26 02:05:41;;;;;;;21.45;4.38;;;;;;;10.71;94.46;102931.31;4992098;28;20494;-66
2023/05/26 02:08:10;;;;;;;26.58;4.57;;;;;;;10.67;95.09;102941.16;5003655;28;20099;-67
2023/05/26 02:10:38;;;;;;;23.42;4.22;;;;;;;10.62;95.38;102936.19;4980410;28;20054;-67
2023/05/26 02:13:06;;;;;;;16.80;3.87;;;;;;;10.57;96.03;102938.25;4992239;28;20108;-67
2023/05/26 02:15:32;;;;;;;20.75;4.30;;;;;;;10.59;94.88;102939.00;4985838;28;20661;-67
2023/05/26 02:17:59;;;;;;;27.60;4.95;;;;;;;10.53;96.51;102947.25;4999023;28;20081;-67
2023/05/26 02:20:25;;;;;;;18.58;3.50;;;;;;;10.52;95.72;102947.34;4996583;28;20050;-67
2023/05/26 02:22:52;;;;;;;22.17;4.13;;;;;;;10.51;96.15;102943.88;4998896;28;20188;-67
2023/05/26 02:25:19;;;;;;;20.77;3.78;;;;;;;10.44;98.03;102942.56;4993284;28;20494;-68
2023/05/26 02:27:45;;;;;;;24.02;4.32;;;;;;;10.45;96.86;102947.72;4984958;28;20499;-67
2023/05/26 02:30:12;;;;;;;27.95;5.25;;;;;;;10.40;96.55;102944.53;4989140;28;20086;-67
2023/05/26 02:32:39;;;;;;;23.98;5.25;;;;;;;10.36;97.77;102948.28;4985158;28;20054;-67
2023/05/26 02:35:07;;;;;;;22.05;4.43;;;;;;;10.30;97.86;102948.66;4996051;28;20105;-67
2023/05/26 02:37:34;;;;;;;22.20;3.83;;;;;;;10.27;96.96;102948.78;4983092;28;20061;-69
2023/05/26 02:40:00;;;;;;;29.38;4.43;;;;;;;10.28;98.24;102940.81;5002689;28;20050;-67
2023/05/26 02:42:26;;;;;;;22.50;4.15;;;;;;;10.28;98.49;102947.84;4994515;28;20137;-67
2023/05/26 02:44:53;;;;;;;23.48;4.80;;;;;;;10.24;98.80;102949.81;4993125;28;20050;-66
2023/05/26 02:47:19;;;;;;;21.10;4.65;;;;;;;10.22;99.47;102943.81;4992564;28;20534;-67
2023/05/26 02:49:46;;;;;;;21.77;3.65;;;;;;;10.19;99.17;102941.41;4992891;28;20060;-67
2023/05/26 02:52:12;;;;;;;24.75;4.40;;;;;;;10.22;99.13;102940.38;4996650;28;20082;-68
2023/05/26 02:54:39;;;;;;;23.55;4.13;;;;;;;10.17;100.00;102943.25;4988199;28;20459;-68
2023/05/26 02:57:06;;;;;;;21.75;4.40;;;;;;;10.16;99.08;102943.34;4974396;28;20042;-67
2023/05/26 02:59:32;;;;;;;23.23;4.30;;;;;;;10.14;99.31;102943.44;4998040;28;20556;-67
2023/05/26 03:01:58;;;;;;;23.13;4.40;;;;;;;10.13;99.82;102948.78;4979727;28;20046;-67
2023/05/26 03:04:25;;;;;;;28.15;4.95;;;;;;;10.10;99.10;102948.03;4995735;28;20097;-67
2023/05/26 03:06:51;;;;;;;23.10;4.18;;;;;;;10.14;98.76;102948.69;4992291;28;20054;-67
2023/05/26 03:09:18;;;;;;;17.88;3.85;;;;;;;10.12;98.72;102950.56;4998814;28;20062;-67
2023/05/26 03:11:44;;;;;;;22.90;4.32;;;;;;;10.13;99.30;102943.53;4989765;28;20485;-68
2023/05/26 03:14:11;;;;;;;23.02;4.57;;;;;;;10.05;99.83;102943.97;4989943;28;20546;-67
2023/05/26 03:16:37;;;;;;;26.25;3.80;;;;;;;10.02;100.00;102945.03;4982738;28;20064;-67
2023/05/26 03:19:04;;;;;;;24.65;4.60;;;;;;;10.01;100.00;102947.72;4986251;28;20050;-67
2023/05/26 03:21:32;;;;;;;21.88;4.38;;;;;;;10.02;100.00;102946.81;4989349;28;20491;-67
2023/05/26 03:24:15;;;;;;;16.55;4.30;;;;;;;9.98;100.00;102954.00;4989354;28;20060;-66
2023/05/26 03:26:42;;;;;;;18.02;4.50;;;;;;;9.96;100.00;102949.75;4999267;28;20085;-67
2023/05/26 03:29:08;;;;;;;20.25;4.18;;;;;;;9.97;100.00;102949.69;4993429;28;20395;-68
2023/05/26 03:31:35;;;;;;;20.85;3.63;;;;;;;9.94;100.00;102952.50;4992716;28;20493;-66
2023/05/26 03:34:08;;;;;;;22.52;4.90;;;;;;;9.97;100.00;102957.53;4993004;28;20058;-67
2023/05/26 03:36:38;;;;;;;16.02;4.15;;;;;;;9.94;100.00;102956.88;4974889;28;20583;-67
2023/05/26 03:39:06;;;;;;;21.08;4.53;;;;;;;9.93;100.00;102956.03;5003090;28;20052;-67
2023/05/26 03:41:33;;;;;;;29.13;4.10;;;;;;;9.87;100.00;102959.84;4996135;28;20057;-68
2023/05/26 03:44:00;;;;;;;16.50;4.07;;;;;;;9.92;100.00;102953.50;4993958;28;20077;-67
2023/05/26 03:46:26;;;;;;;22.10;4.07;;;;;;;9.89;100.00;102947.50;4975387;28;20078;-66
2023/05/26 03:48:53;;;;;;;17.20;3.58;;;;;;;9.86;100.00;102957.34;5000930;28;20062;-67
2023/05/26 03:51:19;;;;;;;22.50;3.80;;;;;;;9.82;100.00;102955.81;4986654;28;20085;-67
2023/05/26 03:53:46;;;;;;;27.02;4.68;;;;;;;9.83;100.00;102960.13;4988239;28;20066;-67
2023/05/26 03:56:12;;;;;;;20.67;3.92;;;;;;;9.83;100.00;102962.75;4988374;28;20625;-67
2023/05/26 03:58:39;;;;;;;20.90;4.50;;;;;;;9.80;100.00;102962.91;4990964;28;20062;-67
2023/05/26 04:01:06;;;;;;;23.08;4.22;;;;;;;9.82;100.00;102967.16;4998651;28;20069;-67
2023/05/26 04:03:32;;;;;;;27.13;5.13;;;;;;;9.86;100.00;102973.06;4998007;28;20148;-67
2023/05/26 04:06:00;;;;;;;17.08;3.80;;;;;;;9.87;100.00;102972.13;4996062;28;20429;-67
2023/05/26 04:08:27;;;;;;;26.77;4.45;;;;;;;9.86;100.00;102966.06;4996084;28;20050;-67
2023/05/26 04:10:54;;;;;;;19.35;4.20;;;;;;;9.89;100.00;102968.47;4993606;28;20046;-66
2023/05/26 04:13:20;;;;;;;23.90;4.47;;;;;;;9.90;100.00;102971.97;4984910;28;20116;-66
2023/05/26 04:15:46;;;;;;;22.60;4.15;;;;;;;9.90;100.00;102972.81;4966485;28;20050;-67
2023/05/26 04:18:13;;;;;;;20.67;3.63;;;;;;;9.90;100.00;102969.34;4982969;28;20068;-67
2023/05/26 04:20:39;;;;;;;25.10;4.00;;;;;;;9.92;100.00;102970.09;4989704;28;20140;-67
2023/05/26 04:23:06;;;;;;;24.55;4.30;;;;;;;9.92;100.00;102970.09;4990876;28;20127;-66
2023/05/26 04:25:33;;;;;;;27.30;5.03;;;;;;;9.96;100.00;102973.34;4994655;28;20050;-67
2023/05/26 04:28:02;;;;;;;23.05;4.45;;;;;;;9.99;100.00;102978.44;4990393;28;20077;-67
2023/05/26 04:30:30;;;;;;;21.65;4.60;;;;;;;10.03;100.00;102975.53;5000702;28;20504;-66
2023/05/26 04:32:57;;;;;;;19.27;4.95;;;;;;;10.04;100.00;102976.41;4998093;28;20054;-67
2023/05/26 04:35:24;;;;;;;19.17;4.07;;;;;;;10.10;100.00;102982.13;4999811;28;20281;-68
2023/05/26 04:37:53;;;;;;;24.27;4.70;;;;;;;10.18;100.00;102983.44;4983109;28;20046;-66
2023/05/26 04:40:19;;;;;;;18.70;3.95;;;;;;;10.24;100.00;102990.94;5005608;28;20140;-68
2023/05/26 04:42:48;;;;;;;19.85;4.55;;;;;;;10.26;100.00;102982.03;5002676;28;20057;-67
2023/05/26 04:45:15;;;;;;;16.73;4.03;;;;;;;10.30;100.00;102988.00;5000454;28;20142;-66
2023/05/26 04:47:42;;;;;;;25.40;4.32;;;;;;;10.35;100.00;102993.81;4997827;28;20096;-67
2023/05/26 04:50:12;;;;;;;23.50;4.85;;;;;;;10.32;100.00;102998.41;4980870;28;20060;-67
2023/05/26 04:52:40;;;;;;;28.90;4.85;;;;;;;10.36;100.00;102998.13;4994725;28;20077;-67
2023/05/26 04:55:07;;;;;;;23.05;4.30;;;;;;;10.39;100.00;103002.31;4986360;28;20109;-68
2023/05/26 04:57:33;;;;;;;20.58;4.88;;;;;;;10.41;100.00;102996.06;4997358;28;20141;-67
2023/05/26 05:00:00;;;;;;;26.65;4.60;;;;;;;10.44;100.00;102995.03;4995128;28;20144;-67
2023/05/26 05:02:27;;;;;;;27.08;5.13;;;;;;;10.44;100.00;102993.25;4994243;28;20507;-68
2023/05/26 05:04:53;;;;;;;19.75;3.90;;;;;;;10.53;99.40;102996.28;4990017;28;20140;-68
2023/05/26 05:07:20;;;;;;;18.58;4.90;;;;;;;10.61;99.81;102992.22;4995064;28;20062;-66
2023/05/26 05:09:46;;;;;;;20.85;4.22;;;;;;;10.64;99.00;102993.81;4992048;28;20056;-67
2023/05/26 05:12:13;;;;;;;18.90;3.75;;;;;;;10.71;97.59;103003.00;4997402;28;20719;-68
2023/05/26 05:14:40;;;;;;;20.45;3.85;;;;;;;10.74;99.35;103001.97;5002186;28;20748;-66
2023/05/26 05:17:06;;;;;;;28.08;4.63;;;;;;;10.81;98.13;103008.53;4984555;28;20142;-66
2023/05/26 05:19:32;;;;;;;15.85;3.40;;;;;;;10.85;97.14;103002.16;4991487;28;20473;-67
2023/05/26 05:21:59;;;;;;;20.33;3.67;;;;;;;10.94;96.41;103006.00;4992731;28;20422;-68
2023/05/26 05:24:26;;;;;;;26.15;4.82;;;;;;;10.95;96.45;103007.69;4992392;28;20083;-67
2023/05/26 05:26:52;;;;;;;19.75;3.88;;;;;;;11.06;94.89;103015.75;4995633;28;20174;-67
2023/05/26 05:29:19;;;;;;;20.55;4.03;;;;;;;11.07;97.45;103013.03;4979439;28;20895;-69
2023/05/26 05:31:45;;;;;;;19.55;3.85;;;;;;;11.18;94.54;103025.47;4990134;28;20053;-67
2023/05/26 05:34:12;;;;;;;21.23;4.50;;;;;;;11.23;95.57;103022.56;4999544;28;20081;-67
2023/05/26 05:36:38;;;;;;;19.95;3.88;;;;;;;11.26;94.46;103032.88;4992186;28;20605;-68
2023/05/26 05:39:05;;;;;;;17.23;3.70;;;;;;;11.32;93.31;103021.97;4988440;28;20140;-68
2023/05/26 05:41:32;;;;;;;26.67;5.03;;;;;;;11.34;94.30;103025.34;4993462;28;20089;-67
2023/05/26 05:43:58;;;;;;;17.48;5.35;;;;;;;11.43;92.40;103021.31;5001549;28;20057;-67
2023/05/26 05:46:25;;;;;;;21.73;4.53;;;;;;;11.45;92.06;103027.31;4976684;28;20688;-67
2023/05/26 05:48:52;;;;;;;18.80;4.43;;;;;;;11.54;91.22;103031.13;4991581;28;20498;-68
2023/05/26 05:51:19;;;;;;;27.75;4.63;;;;;;;11.56;91.65;103029.22;4999126;28;20104;-68
2023/05/26 05:53:45;;;;;;;23.88;4.25;;;;;;;11.57;90.19;103036.19;4984843;28;20049;-67
2023/05/26 05:56:11;;;;;;;23.02;4.18;;;;;;;11.57;89.00;103036.19;4997613;28;20046;-67
2023/05/26 05:58:38;;;;;;;23.85;4.82;;;;;;;11.60;88.94;103041.22;4987190;28;20498;-68
2023/05/26 06:01:04;;;;;;;25.45;4.68;;;;;;;11.56;90.44;103040.59;4991422;28;20077;-67
2023/05/26 06:03:31;;;;;;;20.42;3.95;;;;;;;11.60;89.92;103038.59;4996115;28;20058;-67
2023/05/26 06:05:58;;;;;;;23.95;3.97;;;;;;;11.59;87.47;103045.66;4978458;28;20072;-67
2023/05/26 06:08:24;;;;;;;21.10;4.57;;;;;;;11.63;87.69;103041.06;5002582;28;20275;-67
2023/05/26 06:10:51;;;;;;;21.77;4.85;;;;;;;11.54;88.41;103042.47;4989571;28;20069;-67
2023/05/26 06:13:17;;;;;;;22.52;3.85;;;;;;;11.56;89.48;103039.75;4980599;28;20093;-68
2023/05/26 06:15:44;;;;;;;21.75;4.28;;;;;;;11.59;87.94;103040.41;4993239;28;20149;-67
2023/05/26 06:18:10;;;;;;;20.35;3.47;;;;;;;11.57;88.05;103036.19;4999911;28;20430;-67
2023/05/26 06:20:37;;;;;;;20.38;4.65;;;;;;;11.63;89.46;103044.50;4988673;28;20077;-67
2023/05/26 06:23:03;;;;;;;24.23;4.20;;;;;;;11.61;89.74;103041.13;4994890;28;20058;-67
2023/05/26 06:25:30;;;;;;;23.13;4.53;;;;;;;11.64;87.16;103037.47;4998176;28;20494;-68
2023/05/26 06:27:56;;;;;;;24.08;4.20;;;;;;;11.65;87.74;103041.78;4991129;28;20050;-67
2023/05/26 06:30:24;;;;;;;20.55;4.40;;;;;;;11.70;85.71;103042.31;4999620;28;20069;-67
2023/05/26 06:32:50;;;;;;;23.80;4.30;;;;;;;11.68;85.36;103044.19;4995387;28;20054;-67
2023/05/26 06:35:17;;;;;;;20.65;4.70;;;;;;;11.65;87.08;103055.78;5001478;28;20054;-67
2023/05/26 06:37:44;;;;;;;20.00;3.90;;;;;;;11.71;85.00;103053.69;4994428;28;20089;-69
2023/05/26 06:40:11;;;;;;;17.08;4.20;;;;;;;11.71;86.49;103065.06;4976098;28;20062;-67
2023/05/26 06:42:37;;;;;;;22.35;3.95;;;;;;;11.76;85.68;103047.22;4995530;28;20053;-67
2023/05/26 06:45:04;;;;;;;15.60;4.00;;;;;;;11.81;86.14;103057.41;4991707;28;20322;-68
2023/05/26 06:47:31;;;;;;;22.25;4.50;;;;;;;11.87;84.66;103054.38;5001471;28;20441;-68
2023/05/26 06:49:58;;;;;;;27.00;4.35;;;;;;;11.88;84.47;103053.44;4986803;28;20058;-67
2023/05/26 06:52:24;;;;;;;17.52;3.47;;;;;;;11.91;85.91;103058.53;4991976;28;20045;-68
2023/05/26 06:54:50;;;;;;;25.20;4.38;;;;;;;11.88;84.33;103050.81;4987481;28;20068;-68
2023/05/26 06:57:17;;;;;;;17.67;3.65;;;;;;;11.90;83.45;103048.97;4990051;28;20053;-68
2023/05/26 06:59:44;;;;;;;21.00;3.63;;;;;;;11.91;82.41;103058.53;4991378;28;20061;-67
2023/05/26 07:02:10;;;;;;;27.17;5.68;;;;;;;11.90;83.34;103054.22;4993748;28;20060;-67
2023/05/26 07:04:38;;;;;;;17.67;3.67;;;;;;;11.93;83.63;103067.16;4994491;28;20050;-67
2023/05/26 07:07:04;;;;;;;18.92;4.13;;;;;;;11.96;83.12;103068.75;4980552;28;20123;-67
2023/05/26 07:09:30;;;;;;;23.25;4.43;;;;;;;12.01;83.74;103071.91;4995696;28;20430;-67
2023/05/26 07:11:57;;;;;;;20.20;3.72;;;;;;;12.03;83.68;103070.84;4985404;28;20050;-67
2023/05/26 07:14:23;;;;;;;20.63;3.97;;;;;;;12.12;82.21;103066.78;4998276;28;20058;-67
2023/05/26 07:16:50;;;;;;;17.58;3.60;;;;;;;12.19;81.45;103072.47;5000617;28;20054;-68
2023/05/26 07:19:16;;;;;;;20.30;3.85;;;;;;;12.27;82.50;103067.56;5020693;28;20033;-69
2023/05/26 07:21:43;;;;;;;25.17;5.22;;;;;;;12.26;82.35;103065.88;5002371;28;20123;-68
2023/05/26 07:24:09;;;;;;;21.50;3.88;;;;;;;12.33;81.11;103069.78;4990200;28;20129;-68
2023/05/26 07:26:36;;;;;;;20.40;4.15;;;;;;;12.43;79.56;103072.66;5007826;28;20054;-68
2023/05/26 07:29:03;;;;;;;22.48;4.25;;;;;;;12.51;79.06;103069.50;4997653;28;22353;-70
2023/05/26 07:31:30;;;;;;;25.33;4.65;;;;;;;12.57;78.70;103074.34;4980065;28;20058;-69
2023/05/26 07:33:57;;;;;;;18.05;4.40;;;;;;;12.59;76.61;103064.56;5007436;28;20165;-69
2023/05/26 07:36:23;;;;;;;21.15;4.45;;;;;;;12.71;77.08;103057.59;4985864;28;20058;-69
2023/05/26 07:38:50;;;;;;;19.58;3.92;;;;;;;12.79;76.01;103066.66;4999842;28;20145;-70
2023/05/26 07:41:17;;;;;;;23.60;3.75;;;;;;;12.87;76.45;103066.13;5001349;28;20057;-69
2023/05/26 07:43:43;;;;;;;20.17;4.07;;;;;;;13.03;75.21;103063.25;4999665;28;20361;-69
2023/05/26 07:46:10;;;;;;;28.20;5.40;;;;;;;13.02;74.21;103065.06;4983893;28;20061;-68
2023/05/26 07:48:37;;;;;;;19.58;3.60;;;;;;;13.09;72.57;103060.19;4977075;28;20061;-67
2023/05/26 07:51:03;;;;;;;29.45;3.50;;;;;;;13.06;73.83;103065.69;4974717;28;20450;-67
2023/05/26 07:53:30;;;;;;;19.45;3.95;;;;;;;13.05;73.96;103063.97;4987959;28;20062;-67
2023/05/26 07:55:56;;;;;;;24.35;4.40;;;;;;;13.07;74.41;103067.34;4987332;28;20046;-67
2023/05/26 07:58:23;;;;;;;21.23;5.32;;;;;;;13.08;74.58;103058.50;4981428;28;20054;-67
2023/05/26 08:00:49;;;;;;;20.63;4.25;;;;;;;13.13;75.67;103058.16;4994047;28;20046;-69
2023/05/26 08:03:16;;;;;;;23.83;4.72;;;;;;;13.15;73.43;103059.78;4992173;28;20058;-68
2023/05/26 08:05:43;;;;;;;22.63;3.92;;;;;;;13.24;74.75;103048.56;4983679;28;20418;-67
2023/05/26 08:08:11;;;;;;;22.15;3.92;;;;;;;13.30;74.45;103046.47;4995285;28;20062;-68
2023/05/26 08:10:37;;;;;;;18.98;3.80;;;;;;;13.41;74.97;103057.09;4991545;28;20140;-69
2023/05/26 08:13:04;;;;;;;17.00;3.70;;;;;;;13.53;75.65;103055.38;5000260;28;20552;-67
2023/05/26 08:15:31;;;;;;;19.45;3.50;;;;;;;13.64;73.35;103052.78;4983186;28;20139;-67
2023/05/26 08:17:59;;;;;;;21.40;4.50;;;;;;;13.63;71.39;103054.56;4997503;28;20046;-67
2023/05/26 08:20:25;;;;;;;16.52;3.42;;;;;;;13.68;70.37;103043.72;4990315;28;20105;-69
2023/05/26 08:22:52;;;;;;;20.17;4.05;;;;;;;13.68;70.01;103046.34;4982019;28;20062;-69
2023/05/26 08:25:18;;;;;;;19.23;3.58;;;;;;;13.84;67.94;103052.16;4999097;28;20097;-67
2023/05/26 08:27:45;;;;;;;21.20;4.40;;;;;;;14.04;69.61;103050.69;4981382;28;20435;-67
2023/05/26 08:30:11;;;;;;;21.77;4.45;;;;;;;14.37;70.57;103056.19;4995264;28;20078;-68
2023/05/26 08:32:38;;;;;;;17.42;3.25;;;;;;;14.72;66.89;103056.13;4983950;28;20064;-68
2023/05/26 08:35:05;;;;;;;20.95;4.43;;;;;;;15.08;65.36;103048.09;4973901;28;20056;-67
2023/05/26 08:37:31;;;;;;;16.10;3.85;;;;;;;15.43;65.07;103056.66;4985329;28;20045;-68
2023/05/26 08:39:58;;;;;;;18.40;4.47;;;;;;;15.80;61.96;103045.75;4993092;28;20140;-67
2023/05/26 08:42:31;;;;;;;20.55;4.85;;;;;;;16.07;60.18;103051.53;4994246;28;20062;-67
2023/05/26 08:45:01;;;;;;;18.55;4.72;;;;;;;16.46;60.80;103055.25;4993775;28;20150;-68
2023/05/26 08:47:30;;;;;;;20.42;4.55;;;;;;;16.73;57.79;103052.06;4983900;28;20050;-68
2023/05/26 08:50:02;;;;;;;14.80;3.90;;;;;;;17.02;57.60;103063.78;4986233;28;20077;-68
2023/05/26 08:52:29;;;;;;;22.27;4.47;;;;;;;17.25;56.16;103052.00;4992131;28;20749;-68
2023/05/26 08:54:56;;;;;;;21.73;4.68;;;;;;;17.56;55.89;103057.19;4991439;28;20085;-67
2023/05/26 08:57:22;;;;;;;20.40;4.68;;;;;;;17.77;57.41;103044.63;4990738;28;20085;-68
2023/05/26 08:59:49;;;;;;;17.15;4.10;;;;;;;17.98;54.41;103043.69;4966027;28;20049;-68
2023/05/26 09:02:17;;;;;;;16.15;4.53;;;;;;;18.25;54.19;103044.75;4977496;28;20054;-67
2023/05/26 09:04:43;;;;;;;24.20;4.05;;;;;;;18.41;54.24;103045.00;4998727;28;20136;-68
2023/05/26 09:07:10;;;;;;;16.48;3.70;;;;;;;18.70;53.61;103054.69;4984465;28;20110;-68
2023/05/26 09:09:40;;;;;;;22.55;3.70;;;;;;;18.84;52.46;103034.81;4993339;28;20066;-68
2023/05/26 09:12:11;;;;;;;16.17;4.32;;;;;;;19.04;51.78;103038.22;4996003;28;20488;-68
2023/05/26 09:14:39;;;;;;;17.52;4.25;;;;;;;19.23;51.54;103037.25;4987679;28;20426;-68
2023/05/26 09:17:06;;;;;;;19.75;4.35;;;;;;;19.40;50.85;103040.91;4988579;28;20053;-68
2023/05/26 09:19:33;;;;;;;16.88;4.15;;;;;;;19.46;49.29;103034.97;4993691;28;20156;-69
2023/05/26 09:22:08;;;;;;;20.20;4.53;;;;;;;19.62;50.12;103037.81;4988717;28;20085;-68
2023/05/26 09:24:48;;;;;;;18.98;4.15;;;;;;;19.69;49.50;103032.72;4990720;28;20731;-68
2023/05/26 09:27:23;;;;;;;15.68;3.80;;;;;;;19.83;50.06;103036.69;5001951;28;20724;-67
2023/05/26 09:29:51;;;;;;;14.88;3.88;;;;;;;19.95;49.38;103033.63;4988337;28;20490;-70
2023/05/26 09:32:18;;;;;;;23.23;4.65;;;;;;;20.03;48.25;103034.66;5005895;28;20108;-68
2023/05/26 09:34:45;;;;;;;19.17;4.07;;;;;;;19.96;48.34;103023.81;4996038;28;20050;-68
2023/05/26 09:37:11;;;;;;;14.20;3.85;;;;;;;20.08;48.80;103035.88;4998482;28;20081;-69
2023/05/26 09:39:38;;;;;;;13.50;3.72;;;;;;;20.28;48.83;103025.84;4986565;28;20046;-69
2023/05/26 09:42:08;;;;;;;15.27;4.63;;;;;;;20.39;48.86;103030.09;4975067;28;20480;-68
2023/05/26 09:44:35;;;;;;;19.63;4.38;;;;;;;20.42;47.55;103024.41;5001625;28;20064;-68
2023/05/26 09:47:02;;;;;;;10.68;3.20;;;;;;;20.50;48.35;103024.50;4983101;28;20045;-69
2023/05/26 09:49:31;;;;;;;18.60;4.30;;;;;;;20.71;47.91;103026.75;4995916;28;20156;-68
2023/05/26 09:51:57;;;;;;;18.55;3.67;;;;;;;20.89;47.58;103031.16;4995311;28;20058;-67
2023/05/26 09:54:39;;;;;;;18.15;4.13;;;;;;;20.96;45.64;103026.88;4982619;28;20511;-68
2023/05/26 09:57:11;;;;;;;18.98;4.28;;;;;;;21.12;46.77;103026.91;4983531;28;20054;-69
2023/05/26 09:59:41;;;;;;;15.82;4.10;;;;;;;21.27;45.84;103035.13;4989313;28;20565;-68
2023/05/26 10:02:19;;;;;;;14.13;4.00;;;;;;;21.41;45.64;103030.16;5003561;28;20058;-67
2023/05/26 10:04:47;;;;;;;15.70;4.15;;;;;;;21.53;46.32;103029.69;4987961;28;20140;-68
2023/05/26 10:07:16;;;;;;;19.48;4.40;;;;;;;21.68;45.49;103040.53;5001943;28;20130;-67
2023/05/26 10:09:44;;;;;;;18.40;4.47;;;;;;;21.78;45.11;103032.38;4989197;28;20133;-68
2023/05/26 10:12:13;;;;;;;14.43;4.68;;;;;;;21.95;45.60;103029.69;4990073;28;20054;-68
2023/05/26 10:14:40;;;;;;;18.35;4.22;;;;;;;22.02;44.27;103028.84;4992451;28;20050;-68
2023/05/26 10:17:06;;;;;;;16.42;3.80;;;;;;;22.14;44.65;103029.31;4982706;28;20531;-67
2023/05/26 10:19:33;;;;;;;14.27;3.55;;;;;;;22.15;44.07;103027.47;4992254;28;20053;-68
2023/05/26 10:22:08;;;;;;;12.07;3.58;;;;;;;22.23;42.91;103030.97;4988249;28;20081;-67
2023/05/26 10:24:42;;;;;;;12.93;3.65;;;;;;;22.18;41.88;103019.13;4983666;28;20065;-68
2023/05/26 10:27:27;;;;;;;19.20;4.30;;;;;;;22.31;42.25;103014.94;4979686;28;20054;-69
2023/05/26 10:30:10;;;;;;;15.00;4.10;;;;;;;22.43;42.06;103012.75;4996123;28;20629;-70
2023/05/26 10:32:47;;;;;;;16.02;3.65;;;;;;;22.43;41.86;103011.91;4991433;28;20088;-68
2023/05/26 10:35:29;;;;;;;17.40;4.10;;;;;;;22.50;42.30;103005.69;4988888;28;20058;-68
2023/05/26 10:38:01;;;;;;;12.63;3.10;;;;;;;22.60;42.18;103004.66;4989025;28;20078;-68
2023/05/26 10:40:30;;;;;;;15.77;4.22;;;;;;;22.57;41.53;102992.47;4993701;28;20056;-69
2023/05/26 10:43:02;;;;;;;11.30;3.65;;;;;;;22.82;41.99;102995.84;5001067;28;20433;-68
2023/05/26 10:45:32;;;;;;;15.60;4.68;;;;;;;22.90;42.03;102997.66;4978451;28;20127;-69
2023/05/26 10:48:07;;;;;;;19.10;7.25;;;;;;;23.00;41.92;102994.75;4995015;28;20569;-68
2023/05/26 10:50:58;;;;;;;14.07;4.00;;;;;;;23.07;41.20;102987.69;4981733;28;20065;-69
2023/05/26 10:53:29;;;;;;;17.70;4.43;;;;;;;23.24;41.68;102983.91;4985348;28;20491;-69
2023/05/26 10:55:58;;;;;;;14.07;3.67;;;;;;;23.34;41.85;102985.53;4989423;28;20050;-71
2023/05/26 10:58:28;;;;;;;14.52;4.03;;;;;;;23.23;40.73;102984.09;5003320;28;20081;-68
2023/05/26 11:00:58;;;;;;;14.88;3.55;;;;;;;23.38;42.76;102987.66;4992558;28;20065;-70
2023/05/26 11:03:45;;;;;;;12.45;3.50;;;;;;;23.55;40.40;102980.31;4995295;28;20116;-69
2023/05/26 11:06:14;;;;;;;;;;;;;;;23.58;41.06;102981.81;4981203;28;20473;-69
2023/05/26 11:08:48;;;;;;;;;;;;;;;23.74;40.60;102979.00;4988965;28;20004;-70
2023/05/26 11:11:27;;;;;;;19.45;3.90;;;;;;;23.74;40.06;102976.31;4999190;28;20009;-69
2023/05/26 11:14:09;;;;;;;16.90;3.40;;;;;;;23.82;40.60;102978.94;4988304;28;20557;-70
2023/05/26 11:16:39;;;;;;;14.90;4.03;;;;;;;23.93;39.75;102966.91;4988914;28;20485;-69
2023/05/26 11:19:07;;;;;;;14.75;3.75;;;;;;;24.01;40.25;102974.06;4990778;28;20081;-70
2023/05/26 11:21:36;;;;;;;15.55;3.80;;;;;;;24.11;39.02;102974.63;4996002;28;20418;-68